Jacobstown, New Jersey
Current Conditions -  °F | °C
As of 6:58 AM on Friday 28 Nov 2014 (Local Time) from KWRI Reporting Station
Clear Clear  
Wind Chill: 24°   Ceiling: Unl
Heat Index: 30°   Visibility: 10mi
Dew Point: 24°   Wind: 6mph
Humidity: 77%   Direction: 300°WNW
Pressure: 30.13"   Gusts: NA
Location:  40.0733°N, 74.5866°W
Report Text: KWRI 281158Z AUTO 30005KT 10SM CLR M01/M05 A3013 RMK AO2 SLP208 60000 T10101046 11003 21019 52014
Loading
Personal Weather Stations






























Interactive Weather Map New forecast layout! Learn more

10-Day Weather Forecast

Advertisements
Track Severe Weather on mobile